Time;durP1;ratioP1;P1;durP2;ratioP2;P2;SDS_P1;SDS_P2;PMS_P1;PMS_P2;Temp;Humidity;BMP_temperature;BMP_pressure;BME280_temperature;BME280_humidity;BME280_pressure;Samples;Min_cycle;Max_cycle;Signal;HPM_P1;HPM_P2
2022/07/21 00:02:17;;;;;;;9.18;5.28;;;22.20;96.90;;;;;;5002909;28;20144;-77
2022/07/21 00:04:42;;;;;;;9.75;5.25;;;22.20;97.00;;;;;;4989412;28;20520;-77
2022/07/21 00:07:08;;;;;;;10.48;5.38;;;22.10;97.10;;;;;;4994264;28;20037;-77
2022/07/21 00:09:35;;;;;;;12.13;5.82;;;22.10;97.10;;;;;;5001344;28;20042;-77
2022/07/21 00:12:02;;;;;;;9.93;5.63;;;22.00;97.30;;;;;;5004552;28;20034;-77
2022/07/21 00:14:28;;;;;;;11.27;5.13;;;21.90;97.40;;;;;;4996853;28;20567;-77
2022/07/21 00:16:53;;;;;;;9.02;4.72;;;21.90;97.50;;;;;;4997440;28;20046;-77
2022/07/21 00:19:19;;;;;;;10.93;5.50;;;21.80;97.70;;;;;;4996149;28;20040;-77
2022/07/21 00:21:45;;;;;;;11.13;5.32;;;21.80;98.00;;;;;;5011867;28;20551;-78
2022/07/21 00:24:10;;;;;;;10.63;5.60;;;21.70;98.20;;;;;;5005238;28;20030;-77
2022/07/21 00:26:36;;;;;;;12.65;5.28;;;21.80;98.40;;;;;;4995177;28;20038;-77
2022/07/21 00:29:02;;;;;;;8.70;5.32;;;21.70;98.60;;;;;;4997603;28;20471;-77
2022/07/21 00:31:28;;;;;;;8.68;5.28;;;21.70;98.80;;;;;;5005460;28;20185;-77
2022/07/21 00:33:54;;;;;;;8.10;5.50;;;21.80;99.00;;;;;;5007968;28;20405;-77
2022/07/21 00:36:20;;;;;;;9.50;5.53;;;21.70;98.90;;;;;;5000224;28;20493;-77
2022/07/21 00:38:46;;;;;;;9.50;5.90;;;21.70;99.00;;;;;;5016294;28;20112;-77
2022/07/21 00:41:12;;;;;;;8.10;6.10;;;21.60;99.00;;;;;;5005584;28;20034;-77
2022/07/21 00:43:38;;;;;;;12.25;6.20;;;21.60;99.30;;;;;;5000099;28;20400;-77
2022/07/21 00:46:04;;;;;;;9.98;6.20;;;21.60;99.50;;;;;;5011696;28;20038;-77
2022/07/21 00:48:29;;;;;;;9.75;6.00;;;21.50;99.90;;;;;;5011810;28;20053;-76
2022/07/21 00:50:55;;;;;;;14.85;6.68;;;21.50;99.90;;;;;;4996478;28;20092;-76
2022/07/21 00:53:21;;;;;;;10.98;6.55;;;21.50;99.90;;;;;;4995432;28;20464;-77
2022/07/21 00:55:46;;;;;;;11.52;6.82;;;21.60;99.90;;;;;;4996371;28;20072;-78
2022/07/21 00:58:13;;;;;;;20.77;8.68;;;21.60;99.90;;;;;;5013190;28;20078;-79
2022/07/21 01:00:39;;;;;;;15.70;7.05;;;21.50;99.90;;;;;;5000149;28;20065;-79
2022/07/21 01:03:06;;;;;;;13.88;7.53;;;21.50;99.90;;;;;;4996267;28;20041;-78
2022/07/21 01:05:31;;;;;;;14.02;7.90;;;21.50;99.90;;;;;;5006784;28;20046;-78
2022/07/21 01:08:02;;;;;;;13.38;8.20;;;21.40;99.90;;;;;;5006403;28;20045;-78
2022/07/21 01:10:29;;;;;;;10.40;7.30;;;21.40;99.90;;;;;;4993686;28;20046;-77
2022/07/21 01:12:55;;;;;;;13.40;8.05;;;21.40;99.90;;;;;;5009874;28;20579;-78
2022/07/21 01:15:22;;;;;;;13.75;8.15;;;21.40;99.90;;;;;;4997414;28;20523;-78
2022/07/21 01:17:48;;;;;;;14.88;8.13;;;21.30;99.90;;;;;;4994370;28;20041;-79
2022/07/21 01:20:17;;;;;;;13.48;7.40;;;21.20;99.90;;;;;;5006644;28;20038;-79
2022/07/21 01:22:45;;;;;;;13.95;8.25;;;21.10;99.90;;;;;;4996235;28;20030;-78
2022/07/21 01:25:11;;;;;;;13.90;8.15;;;21.00;99.90;;;;;;4996024;28;20108;-79
2022/07/21 01:27:37;;;;;;;12.85;8.60;;;20.90;99.90;;;;;;4998499;28;20500;-80
2022/07/21 01:30:09;;;;;;;14.63;8.98;;;21.00;99.90;;;;;;4994498;28;20042;-79
2022/07/21 01:32:36;;;;;;;13.18;8.25;;;21.00;99.90;;;;;;4996338;28;20042;-79
2022/07/21 01:35:04;;;;;;;15.18;9.40;;;21.00;99.90;;;;;;4997347;28;20140;-79
2022/07/21 01:37:31;;;;;;;12.70;8.98;;;21.00;99.90;;;;;;4992932;28;20042;-79
2022/07/21 01:42:41;;;;;;;10.52;8.18;;;20.90;99.90;;;;;;4997048;28;20052;-79
2022/07/21 01:45:07;;;;;;;16.13;9.10;;;20.90;99.90;;;;;;4996957;28;20046;-79
2022/07/21 01:47:34;;;;;;;12.93;8.88;;;21.00;99.90;;;;;;4995875;28;22041;-79
2022/07/21 01:50:00;;;;;;;12.90;8.80;;;21.00;99.90;;;;;;5006121;28;20041;-79
2022/07/21 01:52:26;;;;;;;13.85;8.52;;;21.00;99.90;;;;;;5017753;28;20041;-79
2022/07/21 01:54:52;;;;;;;13.15;8.85;;;21.00;99.90;;;;;;5004416;28;20576;-80
2022/07/21 01:57:18;;;;;;;17.38;9.48;;;21.00;99.90;;;;;;5011565;28;20525;-79
2022/07/21 01:59:44;;;;;;;13.88;9.45;;;21.00;99.90;;;;;;4994568;28;20535;-80
2022/07/21 02:02:10;;;;;;;14.05;9.18;;;21.00;99.90;;;;;;4996445;28;20026;-80
2022/07/21 02:04:36;;;;;;;15.10;8.82;;;20.90;99.90;;;;;;4993956;28;20043;-80
2022/07/21 02:07:02;;;;;;;16.05;10.05;;;20.80;99.90;;;;;;4993844;28;20129;-80
2022/07/21 02:09:28;;;;;;;17.17;9.88;;;20.70;99.90;;;;;;5007774;28;20045;-80
2022/07/21 02:11:53;;;;;;;14.00;9.57;;;20.70;99.90;;;;;;5020272;28;20041;-80
2022/07/21 02:14:19;;;;;;;15.93;9.50;;;20.60;99.90;;;;;;5014276;28;20069;-79
2022/07/21 02:16:45;;;;;;;12.38;9.75;;;20.50;99.90;;;;;;5014185;28;20069;-79
2022/07/21 02:19:11;;;;;;;13.50;10.00;;;20.50;99.90;;;;;;4997363;28;20030;-79
2022/07/21 02:21:37;;;;;;;12.50;9.52;;;20.50;99.90;;;;;;5014108;28;20757;-79
2022/07/21 02:24:03;;;;;;;16.58;10.45;;;20.50;99.90;;;;;;4991865;28;20042;-79
2022/07/21 02:26:28;;;;;;;20.00;10.38;;;20.40;99.90;;;;;;4992335;28;20433;-79
2022/07/21 02:28:54;;;;;;;14.30;10.35;;;20.40;99.90;;;;;;4994073;28;20389;-79
2022/07/21 02:31:20;;;;;;;13.70;9.60;;;20.40;99.90;;;;;;4997378;28;20030;-79
2022/07/21 02:33:45;;;;;;;19.05;11.32;;;20.40;99.90;;;;;;5008204;28;20040;-79
2022/07/21 02:36:11;;;;;;;12.30;9.73;;;20.30;99.90;;;;;;5006614;28;20070;-78
2022/07/21 02:38:37;;;;;;;15.68;9.85;;;20.30;99.90;;;;;;4998818;28;20528;-78
2022/07/21 02:41:03;;;;;;;15.50;10.30;;;20.40;99.90;;;;;;4995585;28;20061;-79
2022/07/21 02:43:29;;;;;;;13.95;10.45;;;20.40;99.90;;;;;;5015333;28;20046;-79
2022/07/21 02:45:54;;;;;;;12.98;10.57;;;20.30;99.90;;;;;;4995723;28;20042;-78
2022/07/21 02:48:20;;;;;;;13.82;10.52;;;20.30;99.90;;;;;;5007542;28;20527;-78
2022/07/21 02:50:46;;;;;;;12.50;10.20;;;20.30;99.90;;;;;;4999039;28;20459;-79
2022/07/21 02:53:22;;;;;;;13.63;10.68;;;20.20;99.90;;;;;;5011449;28;20049;-79
2022/07/21 02:55:48;;;;;;;15.43;11.18;;;20.20;99.90;;;;;;4995766;28;20528;-79
2022/07/21 02:58:26;;;;;;;14.70;10.27;;;20.20;99.90;;;;;;4996601;28;20033;-79
2022/07/21 03:01:01;;;;;;;15.57;11.32;;;20.30;99.90;;;;;;4992687;28;20069;-79
2022/07/21 03:03:31;;;;;;;13.80;11.07;;;20.30;99.90;;;;;;5002873;28;20041;-78
2022/07/21 03:05:57;;;;;;;14.95;11.00;;;20.40;99.90;;;;;;5000494;28;20034;-78
2022/07/21 03:08:23;;;;;;;16.42;11.18;;;20.50;99.90;;;;;;5007406;28;20049;-78
2022/07/21 03:10:49;;;;;;;14.35;10.80;;;20.50;99.90;;;;;;4995228;28;20042;-79
2022/07/21 03:13:15;;;;;;;13.52;11.00;;;20.50;99.90;;;;;;4993292;28;20104;-78
2022/07/21 03:15:41;;;;;;;14.48;11.57;;;20.50;99.90;;;;;;5008191;28;20519;-79
2022/07/21 03:18:07;;;;;;;15.18;11.27;;;20.50;99.90;;;;;;4996728;28;20523;-79
2022/07/21 03:20:35;;;;;;;13.85;10.63;;;20.50;99.90;;;;;;5010460;28;20089;-79
2022/07/21 03:23:01;;;;;;;16.25;11.75;;;20.50;99.90;;;;;;4989824;28;20042;-79
2022/07/21 03:25:27;;;;;;;15.32;11.70;;;20.50;99.90;;;;;;4991499;28;20489;-79
2022/07/21 03:27:53;;;;;;;13.77;11.48;;;20.50;99.90;;;;;;5006503;28;20158;-79
2022/07/21 03:30:19;;;;;;;16.42;12.68;;;20.50;99.90;;;;;;5006790;28;20042;-78
2022/07/21 03:32:45;;;;;;;16.05;12.73;;;20.50;99.90;;;;;;4989642;28;20049;-78
2022/07/21 03:35:12;;;;;;;15.20;13.00;;;20.50;99.90;;;;;;4993090;28;20121;-78
2022/07/21 03:37:48;;;;;;;17.20;12.98;;;20.50;99.90;;;;;;4995934;28;20042;-78
2022/07/21 03:40:16;;;;;;;15.35;12.35;;;20.50;99.90;;;;;;4996673;28;20100;-78
2022/07/21 03:42:42;;;;;;;18.15;12.93;;;20.50;99.90;;;;;;5001099;28;20061;-78
2022/07/21 03:45:09;;;;;;;15.63;12.73;;;20.50;99.90;;;;;;4995069;28;20073;-78
2022/07/21 03:47:35;;;;;;;19.23;13.80;;;20.50;99.90;;;;;;5009217;28;20053;-78
2022/07/21 03:50:01;;;;;;;14.30;12.55;;;20.40;99.90;;;;;;4997443;28;20088;-78
2022/07/21 03:52:27;;;;;;;16.50;14.05;;;20.30;99.90;;;;;;4994497;28;20598;-78
2022/07/21 03:55:07;;;;;;;15.93;13.20;;;20.30;99.90;;;;;;5001149;28;20511;-78
2022/07/21 03:57:37;;;;;;;18.13;13.90;;;20.30;99.90;;;;;;4987022;28;20066;-77
2022/07/21 04:00:06;;;;;;;17.17;14.05;;;20.30;99.90;;;;;;4989847;28;21880;-78
2022/07/21 04:02:31;;;;;;;17.33;13.77;;;20.30;99.90;;;;;;4994619;28;20058;-78
2022/07/21 04:04:57;;;;;;;16.48;12.95;;;20.20;99.90;;;;;;4995900;28;20485;-78
2022/07/21 04:07:22;;;;;;;17.15;13.95;;;20.30;99.90;;;;;;4990726;28;20523;-77
2022/07/21 04:09:48;;;;;;;15.05;12.43;;;20.30;99.90;;;;;;4994072;28;20140;-78
2022/07/21 04:12:13;;;;;;;18.13;14.18;;;20.00;99.90;;;;;;5001134;28;20207;-77
2022/07/21 04:14:39;;;;;;;16.17;14.43;;;20.10;99.90;;;;;;4995649;28;20128;-78
2022/07/21 04:17:04;;;;;;;17.00;14.90;;;20.10;99.90;;;;;;4983644;28;20068;-77
2022/07/21 04:19:30;;;;;;;20.60;15.18;;;20.00;99.90;;;;;;4980057;28;20042;-78
2022/07/21 04:21:57;;;;;;;18.63;15.13;;;20.00;99.90;;;;;;4992490;28;20034;-78
2022/07/21 04:24:22;;;;;;;18.02;14.95;;;20.00;99.90;;;;;;4989757;28;20065;-78
2022/07/21 04:26:48;;;;;;;17.85;15.07;;;20.00;99.90;;;;;;4991442;28;20117;-78
2022/07/21 04:29:13;;;;;;;18.15;14.57;;;19.90;99.90;;;;;;5008308;28;20092;-78
2022/07/21 04:31:39;;;;;;;17.13;14.25;;;19.90;99.90;;;;;;4993235;28;20042;-78
2022/07/21 04:34:04;;;;;;;17.65;15.20;;;20.00;99.90;;;;;;5003180;28;21838;-78
2022/07/21 04:36:30;;;;;;;22.85;16.10;;;20.00;99.90;;;;;;5002061;28;20420;-78
2022/07/21 04:38:55;;;;;;;18.02;15.18;;;20.10;99.90;;;;;;5007748;28;20030;-78
2022/07/21 04:41:21;;;;;;;19.85;16.02;;;20.00;99.90;;;;;;4991385;28;20042;-78
2022/07/21 04:43:47;;;;;;;21.55;16.77;;;20.00;99.90;;;;;;4995540;28;20030;-78
2022/07/21 04:46:12;;;;;;;22.90;16.80;;;20.00;99.90;;;;;;4996952;28;20042;-78
2022/07/21 04:48:38;;;;;;;22.65;17.55;;;20.00;99.90;;;;;;4992554;28;20049;-77
2022/07/21 04:51:03;;;;;;;23.60;17.80;;;19.90;99.90;;;;;;4993027;28;20038;-78
2022/07/21 04:53:29;;;;;;;21.25;17.45;;;20.00;99.90;;;;;;4992068;28;20141;-78
2022/07/21 04:55:54;;;;;;;20.17;16.92;;;20.00;99.90;;;;;;4993859;28;20035;-78
2022/07/21 04:58:20;;;;;;;20.40;18.20;;;20.00;99.90;;;;;;5010568;28;20187;-78
2022/07/21 05:00:46;;;;;;;18.77;16.30;;;20.00;99.90;;;;;;4988223;28;20042;-78
2022/07/21 05:03:13;;;;;;;20.65;17.45;;;20.10;99.90;;;;;;5008383;28;20658;-78
2022/07/21 05:05:39;;;;;;;22.95;18.13;;;20.10;99.90;;;;;;4995261;28;21060;-78
2022/07/21 05:08:04;;;;;;;19.48;17.30;;;20.20;99.90;;;;;;4995911;28;20040;-78
2022/07/21 05:10:30;;;;;;;20.88;17.75;;;20.20;99.90;;;;;;4989145;28;20662;-78
2022/07/21 05:12:55;;;;;;;25.45;17.90;;;20.30;99.90;;;;;;4994901;28;20038;-78
2022/07/21 05:15:21;;;;;;;20.27;17.83;;;20.30;99.90;;;;;;4997431;28;20042;-78
2022/07/21 05:17:47;;;;;;;20.02;17.80;;;20.30;99.90;;;;;;4999825;28;20069;-77
2022/07/21 05:20:13;;;;;;;20.63;17.83;;;20.30;99.90;;;;;;5003101;28;20547;-78
2022/07/21 05:22:39;;;;;;;24.45;19.15;;;20.40;99.90;;;;;;4994229;28;20145;-77
2022/07/21 05:25:05;;;;;;;21.92;18.20;;;20.40;99.90;;;;;;4991155;28;20038;-77
2022/07/21 05:27:31;;;;;;;20.05;17.90;;;20.40;99.90;;;;;;4996654;28;20045;-78
2022/07/21 05:29:57;;;;;;;20.30;17.65;;;20.40;99.90;;;;;;4998088;28;20038;-77
2022/07/21 05:32:22;;;;;;;21.23;17.65;;;20.40;99.90;;;;;;4994897;28;20053;-77
2022/07/21 05:34:48;;;;;;;20.52;18.27;;;20.40;99.90;;;;;;5003032;28;20381;-77
2022/07/21 05:37:13;;;;;;;21.60;18.67;;;20.40;99.90;;;;;;4996496;28;20057;-78
2022/07/21 05:39:39;;;;;;;21.05;18.85;;;20.40;99.90;;;;;;4994392;28;20053;-78
2022/07/21 05:42:04;;;;;;;22.33;17.85;;;20.30;99.90;;;;;;4998461;28;20034;-78
2022/07/21 05:44:30;;;;;;;19.95;17.75;;;20.30;99.90;;;;;;5010081;28;20042;-78
2022/07/21 05:46:56;;;;;;;19.67;17.48;;;20.30;99.90;;;;;;5001819;28;20084;-78
2022/07/21 05:49:21;;;;;;;19.38;17.23;;;20.30;99.90;;;;;;5009721;28;20033;-78
2022/07/21 05:51:47;;;;;;;21.00;17.65;;;20.30;99.90;;;;;;5004381;28;20052;-78
2022/07/21 05:54:12;;;;;;;19.73;17.73;;;20.30;99.90;;;;;;4997524;28;20038;-78
2022/07/21 05:56:38;;;;;;;19.02;17.00;;;20.30;99.90;;;;;;4988398;28;20062;-78
2022/07/21 05:59:03;;;;;;;20.45;18.35;;;20.40;99.90;;;;;;4996324;28;20507;-78
2022/07/21 06:01:29;;;;;;;20.25;18.00;;;20.40;99.90;;;;;;4992524;28;20069;-78
2022/07/21 06:03:54;;;;;;;20.92;18.70;;;20.40;99.90;;;;;;4995945;28;20038;-78
2022/07/21 06:06:20;;;;;;;20.58;18.38;;;20.40;99.90;;;;;;4995232;28;20030;-78
2022/07/21 06:08:47;;;;;;;22.80;19.48;;;20.40;99.90;;;;;;4997438;28;20069;-77
2022/07/21 06:11:16;;;;;;;19.77;17.73;;;20.50;99.90;;;;;;4993040;28;20064;-78
2022/07/21 06:13:43;;;;;;;20.98;18.77;;;20.50;99.90;;;;;;4998802;28;20037;-78
2022/07/21 06:16:09;;;;;;;18.63;16.67;;;20.40;99.90;;;;;;5000852;28;20144;-78
2022/07/21 06:18:35;;;;;;;19.88;17.77;;;20.40;99.90;;;;;;4989413;28;20396;-78
2022/07/21 06:21:02;;;;;;;22.50;18.73;;;20.40;99.90;;;;;;5005680;28;20030;-78
2022/07/21 06:23:27;;;;;;;21.83;18.48;;;20.40;99.90;;;;;;5013153;28;20038;-78
2022/07/21 06:25:54;;;;;;;19.83;17.38;;;20.40;99.90;;;;;;4994464;28;20034;-78
2022/07/21 06:28:20;;;;;;;20.15;17.80;;;20.50;99.90;;;;;;4995573;28;20041;-79
2022/07/21 06:30:46;;;;;;;24.10;19.33;;;20.40;99.90;;;;;;4993526;28;20030;-77
2022/07/21 06:33:11;;;;;;;20.45;18.33;;;20.50;99.90;;;;;;4991730;28;20412;-77
2022/07/21 06:35:37;;;;;;;20.90;18.60;;;20.50;99.90;;;;;;4993446;28;20038;-78
2022/07/21 06:38:03;;;;;;;21.33;19.02;;;20.60;99.90;;;;;;4993778;28;20041;-77
2022/07/21 06:40:29;;;;;;;19.85;17.80;;;20.60;99.90;;;;;;4992770;28;20089;-78
2022/07/21 06:42:55;;;;;;;22.52;18.52;;;20.50;99.90;;;;;;4994687;28;20450;-78
2022/07/21 06:45:21;;;;;;;21.42;19.13;;;20.50;99.90;;;;;;5010963;28;20108;-78
2022/07/21 06:47:47;;;;;;;24.55;19.10;;;20.50;99.90;;;;;;4992661;28;20081;-78
2022/07/21 06:50:13;;;;;;;19.40;16.83;;;20.40;99.90;;;;;;4993273;28;20070;-78
2022/07/21 06:52:38;;;;;;;23.13;18.42;;;20.40;99.90;;;;;;4993344;28;20069;-78
2022/07/21 06:55:06;;;;;;;22.27;19.90;;;20.40;99.90;;;;;;5003760;28;20069;-77
2022/07/21 06:57:36;;;;;;;22.40;19.95;;;20.40;99.90;;;;;;4980497;28;20045;-78
2022/07/21 07:00:06;;;;;;;20.73;18.52;;;20.50;99.90;;;;;;4995960;28;20030;-78
2022/07/21 07:02:32;;;;;;;22.90;20.42;;;20.60;99.90;;;;;;4996864;28;20070;-77
2022/07/21 07:04:57;;;;;;;24.08;21.48;;;20.60;99.90;;;;;;5007223;28;20084;-78
2022/07/21 07:07:23;;;;;;;23.58;21.05;;;20.70;99.90;;;;;;4995265;28;20038;-78
2022/07/21 07:09:49;;;;;;;24.33;21.77;;;20.70;99.90;;;;;;4991426;28;20412;-78
2022/07/21 07:12:14;;;;;;;27.25;22.15;;;20.70;99.90;;;;;;4993236;28;20038;-78
2022/07/21 07:14:40;;;;;;;23.75;21.02;;;20.70;99.90;;;;;;4994515;28;20037;-78
2022/07/21 07:17:05;;;;;;;25.13;22.42;;;20.70;99.90;;;;;;5005692;28;20497;-78
2022/07/21 07:19:31;;;;;;;25.95;23.17;;;20.70;99.90;;;;;;4997509;28;20129;-78
2022/07/21 07:21:57;;;;;;;26.65;23.45;;;20.70;99.90;;;;;;4991824;28;20378;-78
2022/07/21 07:24:23;;;;;;;26.05;22.73;;;20.70;99.90;;;;;;4997180;28;20068;-78
2022/07/21 07:26:49;;;;;;;25.17;22.48;;;20.70;99.90;;;;;;4992910;28;20292;-78
2022/07/21 07:29:15;;;;;;;26.42;23.65;;;20.70;99.90;;;;;;4995074;28;20061;-78
2022/07/21 07:31:41;;;;;;;25.65;22.90;;;20.70;99.90;;;;;;5008452;28;20041;-78
2022/07/21 07:34:07;;;;;;;24.95;22.13;;;20.60;99.90;;;;;;4995555;28;20038;-78
2022/07/21 07:36:34;;;;;;;26.95;23.80;;;20.70;99.90;;;;;;4996962;28;20034;-79
2022/07/21 07:39:01;;;;;;;24.90;22.30;;;20.60;99.90;;;;;;5011306;28;20034;-78
2022/07/21 07:41:28;;;;;;;24.67;22.02;;;20.60;99.90;;;;;;4993138;28;20038;-78
2022/07/21 07:43:54;;;;;;;24.50;21.33;;;20.60;99.90;;;;;;5003251;28;20373;-78
2022/07/21 07:46:20;;;;;;;24.58;21.98;;;20.60;99.90;;;;;;5010990;28;20038;-78
2022/07/21 07:48:47;;;;;;;24.15;21.70;;;20.60;99.90;;;;;;5011032;28;20042;-78
2022/07/21 07:51:13;;;;;;;24.60;21.50;;;20.70;99.90;;;;;;5009608;28;20042;-78
2022/07/21 07:53:40;;;;;;;24.52;21.83;;;20.70;99.90;;;;;;5006948;28;20165;-78
2022/07/21 07:56:07;;;;;;;23.98;21.58;;;20.80;99.90;;;;;;4996091;28;20043;-78
2022/07/21 07:58:33;;;;;;;23.27;20.80;;;20.90;99.90;;;;;;4993084;28;20049;-78
2022/07/21 08:00:59;;;;;;;22.73;20.42;;;20.90;99.90;;;;;;4993952;28;20519;-78
2022/07/21 08:03:25;;;;;;;23.95;21.48;;;20.90;99.90;;;;;;5014892;28;20041;-78
2022/07/21 08:05:53;;;;;;;22.95;20.55;;;20.90;99.90;;;;;;5030388;28;20553;-78
2022/07/21 08:08:18;;;;;;;22.33;19.80;;;21.00;99.90;;;;;;4993416;28;20042;-78
2022/07/21 08:10:45;;;;;;;23.00;20.73;;;21.10;99.90;;;;;;4976672;28;20552;-79
2022/07/21 08:13:18;;;;;;;23.92;21.27;;;21.10;99.90;;;;;;5004764;28;20088;-79
2022/07/21 08:15:46;;;;;;;24.70;19.75;;;21.30;99.90;;;;;;4997772;28;20121;-79
2022/07/21 08:18:12;;;;;;;23.30;21.00;;;21.30;99.90;;;;;;4975416;28;20492;-78
2022/07/21 08:20:38;;;;;;;24.63;21.90;;;21.30;99.90;;;;;;5002653;28;20038;-78
2022/07/21 08:23:04;;;;;;;24.30;21.70;;;21.30;99.90;;;;;;5007028;28;20049;-79
2022/07/21 08:25:30;;;;;;;23.83;21.35;;;21.30;99.90;;;;;;5006430;28;20061;-78
2022/07/21 08:27:55;;;;;;;24.33;21.83;;;21.30;99.90;;;;;;5006829;28;20042;-78
2022/07/21 08:30:21;;;;;;;24.05;21.45;;;21.40;99.90;;;;;;5000414;28;20532;-78
2022/07/21 08:32:47;;;;;;;23.10;20.83;;;21.40;99.90;;;;;;5027823;28;20046;-78
2022/07/21 08:35:12;;;;;;;22.60;20.42;;;21.40;99.90;;;;;;5013328;28;20042;-78
2022/07/21 08:37:39;;;;;;;25.05;22.45;;;21.50;99.90;;;;;;4997522;28;20038;-78
2022/07/21 08:40:10;;;;;;;25.33;22.70;;;21.60;99.90;;;;;;4993441;28;20045;-78
2022/07/21 08:42:36;;;;;;;25.17;22.48;;;21.70;99.90;;;;;;5004974;28;20042;-78
2022/07/21 08:45:03;;;;;;;23.95;21.35;;;21.80;99.90;;;;;;5003623;28;20129;-78
2022/07/21 08:47:30;;;;;;;25.75;23.08;;;21.80;99.90;;;;;;4994948;28;20520;-78
2022/07/21 08:49:57;;;;;;;24.55;21.98;;;21.80;99.90;;;;;;5011723;28;20053;-78
2022/07/21 08:52:23;;;;;;;26.75;23.92;;;21.80;99.90;;;;;;5005727;28;20065;-78
2022/07/21 08:54:50;;;;;;;26.85;23.95;;;21.80;99.90;;;;;;4993627;28;20097;-78
2022/07/21 08:57:16;;;;;;;25.52;22.98;;;21.90;99.90;;;;;;4988959;28;20052;-78
2022/07/21 08:59:41;;;;;;;26.55;23.73;;;21.90;99.90;;;;;;5000170;28;20069;-78
2022/07/21 09:02:29;;;;;;;28.70;25.52;;;21.90;99.90;;;;;;5012407;28;20135;-78
2022/07/21 09:04:55;;;;;;;28.88;25.95;;;21.90;99.90;;;;;;5010233;28;20463;-78
2022/07/21 09:07:22;;;;;;;28.67;25.58;;;21.90;99.90;;;;;;5011979;28;20041;-78
2022/07/21 09:09:59;;;;;;;28.55;25.55;;;21.90;99.90;;;;;;5010582;28;20053;-78
2022/07/21 09:12:26;;;;;;;29.60;26.20;;;21.90;99.90;;;;;;5005467;28;20042;-78
2022/07/21 09:14:52;;;;;;;29.73;26.52;;;22.00;99.90;;;;;;5000348;28;20492;-78
2022/07/21 09:17:18;;;;;;;30.90;27.10;;;22.00;99.90;;;;;;5012928;28;20092;-77
2022/07/21 09:19:46;;;;;;;33.63;29.13;;;22.10;99.90;;;;;;5014569;28;20539;-78
2022/07/21 09:22:18;;;;;;;34.55;30.00;;;22.10;99.90;;;;;;5012213;28;20151;-78
2022/07/21 09:24:50;;;;;;;36.45;32.08;;;22.10;99.90;;;;;;4996936;28;20050;-78
2022/07/21 09:27:23;;;;;;;35.20;29.90;;;22.00;99.90;;;;;;4993426;28;20042;-78
2022/07/21 09:29:55;;;;;;;37.45;32.35;;;22.00;99.90;;;;;;4996026;28;20283;-78
2022/07/21 09:32:28;;;;;;;36.70;32.47;;;21.90;99.90;;;;;;5009327;28;20411;-79
2022/07/21 09:35:07;;;;;;;35.95;31.30;;;21.90;99.90;;;;;;5011039;28;20046;-78
2022/07/21 09:37:33;;;;;;;36.53;31.90;;;22.10;99.90;;;;;;5010074;28;20338;-78
2022/07/21 09:40:07;;;;;;;35.08;30.90;;;22.10;99.90;;;;;;5008155;28;20125;-78
2022/07/21 09:42:52;;;;;;;;;;;22.30;99.90;;;;;;4992589;28;20053;-78
2022/07/21 09:45:18;;;;;;;36.00;30.67;;;22.30;99.90;;;;;;4974962;28;19921;-79
2022/07/21 09:47:46;;;;;;;34.30;30.05;;;22.40;99.90;;;;;;4992091;28;20038;-79
2022/07/21 09:50:14;;;;;;;35.35;30.35;;;22.40;99.90;;;;;;4996536;28;20457;-78
2022/07/21 09:52:45;;;;;;;39.13;31.27;;;22.50;99.90;;;;;;5011769;28;20034;-78
2022/07/21 09:55:15;;;;;;;38.65;31.98;;;22.50;99.90;;;;;;5013097;28;20038;-79
2022/07/21 09:57:42;;;;;;;38.33;32.38;;;22.50;99.90;;;;;;5020338;28;20038;-79
2022/07/21 10:00:12;;;;;;;40.90;34.70;;;22.50;99.90;;;;;;5012278;28;20526;-78
2022/07/21 10:02:38;;;;;;;38.65;33.40;;;22.60;99.90;;;;;;5023692;28;20042;-78
2022/07/21 10:05:07;;;;;;;41.35;33.25;;;22.60;99.90;;;;;;5010075;28;20042;-78
2022/07/21 10:07:36;;;;;;;37.28;32.33;;;22.70;99.90;;;;;;5005927;28;20038;-78
2022/07/21 10:10:03;;;;;;;37.58;32.50;;;22.80;99.90;;;;;;5008752;28;20042;-78
2022/07/21 10:12:28;;;;;;;43.10;32.55;;;22.90;99.90;;;;;;5001846;28;20139;-78
2022/07/21 10:14:55;;;;;;;36.70;32.30;;;22.90;99.90;;;;;;4999284;28;20038;-78
2022/07/21 10:17:22;;;;;;;40.95;33.42;;;23.10;99.90;;;;;;5008491;28;20052;-78
2022/07/21 10:20:07;;;;;;;37.13;32.50;;;23.20;99.90;;;;;;5007889;28;20038;-78
2022/07/21 10:22:51;;;;;;;37.03;33.00;;;23.40;99.90;;;;;;5001473;28;20445;-78
2022/07/21 10:25:17;;;;;;;38.83;33.10;;;23.60;99.90;;;;;;5008231;28;20065;-78
2022/07/21 10:28:17;;;;;;;35.85;31.95;;;23.60;99.90;;;;;;5005590;28;20081;-78
2022/07/21 10:30:51;;;;;;;36.70;32.70;;;23.70;99.90;;;;;;5005631;28;20085;-78
2022/07/21 10:33:41;;;;;;;34.42;30.75;;;23.90;99.90;;;;;;4999209;28;20408;-78
2022/07/21 10:36:08;;;;;;;33.63;28.95;;;24.00;99.90;;;;;;5007119;28;20124;-79
2022/07/21 10:38:35;;;;;;;32.28;28.60;;;24.10;99.90;;;;;;4996150;28;20076;-79
2022/07/21 10:41:03;;;;;;;30.85;27.38;;;24.20;99.90;;;;;;4999466;28;20031;-78
2022/07/21 10:43:28;;;;;;;32.92;29.42;;;24.20;99.90;;;;;;5007529;28;20042;-79
2022/07/21 10:45:56;;;;;;;34.95;29.88;;;24.10;99.90;;;;;;4997151;28;20519;-78
2022/07/21 10:48:37;;;;;;;31.85;28.30;;;24.30;99.90;;;;;;5037191;28;20573;-78
2022/07/21 10:51:07;;;;;;;30.80;27.40;;;24.30;99.90;;;;;;5013695;28;20045;-78
2022/07/21 10:53:33;;;;;;;32.33;28.98;;;24.40;99.90;;;;;;5005683;28;20564;-79
2022/07/21 10:55:59;;;;;;;32.28;28.73;;;24.30;99.90;;;;;;4989794;28;20077;-79
2022/07/21 10:58:38;;;;;;;32.75;29.40;;;24.40;99.90;;;;;;4991716;28;20038;-78
2022/07/21 11:01:14;;;;;;;34.78;29.10;;;24.40;99.90;;;;;;5029303;28;20037;-79
2022/07/21 11:03:41;;;;;;;30.33;27.20;;;24.60;99.90;;;;;;4993612;28;20034;-78
2022/07/21 11:06:24;;;;;;;31.45;28.05;;;24.90;99.90;;;;;;4992148;28;20052;-78
2022/07/21 11:08:52;;;;;;;32.10;28.77;;;25.10;99.90;;;;;;4992756;28;20050;-78
2022/07/21 11:11:19;;;;;;;31.50;28.13;;;25.30;99.90;;;;;;5009874;28;20038;-76
2022/07/21 11:13:59;;;;;;;29.25;25.50;;;25.30;99.90;;;;;;4993360;28;20042;-77
2022/07/21 11:16:46;;;;;;;29.13;26.02;;;25.40;99.90;;;;;;4998954;28;20049;-78
2022/07/21 11:19:49;;;;;;;28.38;25.33;;;25.70;99.90;;;;;;5011038;28;20044;-77
2022/07/21 11:22:26;;;;;;;29.77;26.25;;;26.10;99.90;;;;;;4997586;28;20042;-77
2022/07/21 11:25:00;;;;;;;26.48;23.65;;;26.30;99.90;;;;;;4990900;28;20380;-77
2022/07/21 11:27:28;;;;;;;23.50;21.10;;;26.20;99.90;;;;;;4991139;28;20145;-77
2022/07/21 11:29:57;;;;;;;28.95;21.48;;;26.20;99.90;;;;;;4991473;28;20042;-77
2022/07/21 11:32:23;;;;;;;19.92;16.77;;;26.30;99.90;;;;;;4985125;28;20049;-76
2022/07/21 11:35:00;;;;;;;15.80;13.75;;;26.40;99.90;;;;;;4994247;28;20034;-77
2022/07/21 11:37:36;;;;;;;13.80;11.10;;;26.70;99.90;;;;;;5010695;28;20077;-76
2022/07/21 11:40:09;;;;;;;17.77;14.25;;;26.90;99.90;;;;;;5006839;28;20040;-76
2022/07/21 11:42:35;;;;;;;14.75;13.25;;;26.90;99.90;;;;;;4991232;28;20485;-76
2022/07/21 11:45:01;;;;;;;14.50;13.02;;;27.00;99.90;;;;;;5006468;28;20046;-76
2022/07/21 11:47:27;;;;;;;13.25;12.00;;;27.20;99.90;;;;;;4991578;28;20496;-76
2022/07/21 11:49:55;;;;;;;12.93;11.50;;;27.10;99.90;;;;;;4990077;28;20081;-76
2022/07/21 11:52:26;;;;;;;13.18;11.65;;;26.80;99.90;;;;;;4989718;28;20054;-76
2022/07/21 11:54:53;;;;;;;13.38;12.07;;;26.40;99.90;;;;;;4990246;28;20105;-76
2022/07/21 11:57:20;;;;;;;14.00;12.60;;;26.20;99.90;;;;;;4990706;28;20053;-76
2022/07/21 11:59:47;;;;;;;15.40;13.80;;;26.00;99.90;;;;;;4990990;28;20551;-76
2022/07/21 12:02:15;;;;;;;14.55;12.23;;;25.90;99.90;;;;;;4990903;28;20045;-76
2022/07/21 12:04:48;;;;;;;15.00;13.50;;;26.10;99.90;;;;;;4990701;28;20117;-75
2022/07/21 12:07:24;;;;;;;14.60;12.30;;;26.10;99.90;;;;;;5002141;28;20049;-75
2022/07/21 12:09:57;;;;;;;13.73;12.30;;;25.90;99.90;;;;;;5008086;28;20045;-76
2022/07/21 12:12:43;;;;;;;12.18;10.80;;;25.70;99.90;;;;;;4987572;28;20121;-76
2022/07/21 12:15:16;;;;;;;11.77;10.57;;;26.00;99.90;;;;;;5005243;28;20455;-76
2022/07/21 12:17:48;;;;;;;11.13;10.02;;;26.10;99.90;;;;;;5016504;28;20034;-76
2022/07/21 12:20:24;;;;;;;12.48;11.18;;;26.10;99.90;;;;;;5013312;28;20446;-76
2022/07/21 12:22:49;;;;;;;11.57;10.23;;;25.90;99.90;;;;;;5012752;28;20113;-76
2022/07/21 12:25:17;;;;;;;12.85;11.57;;;25.60;99.90;;;;;;4991314;28;20125;-76
2022/07/21 12:27:45;;;;;;;12.75;10.85;;;25.40;99.90;;;;;;4990755;28;20089;-76
2022/07/21 12:30:36;;;;;;;10.98;9.88;;;25.40;99.90;;;;;;5006536;28;20092;-76
2022/07/21 12:33:09;;;;;;;11.48;10.30;;;25.00;99.90;;;;;;4990956;28;20461;-76
2022/07/21 12:35:40;;;;;;;13.57;12.20;;;24.80;99.90;;;;;;5006946;28;20046;-76
2022/07/21 12:38:11;;;;;;;12.65;11.40;;;24.50;99.90;;;;;;5023666;28;20100;-77